Aurora, CO (80015)

9:12 PM MST on February 28, 2015 (GMT -0700)
Piney Creek | Change Station
CLOSE
Current Station
Personal Weather Station
Location: Centennial, CO
Elevation: 5795 ft
Nearby Weather Stations

Elev 5795 ft 39.62 °N, 104.80 °W | Updated 10 seconds ago

Mostly Cloudy
Mostly Cloudy
16.4 °F
Feels Like 16 °F
N
0.0
Wind Variable Wind from NE
Gusts 0.0 mph

Today
High -- | Low -- °F
--% Chance of Precip.
Yesterday
High -- | Low -- °F
Precip. -- in
6:33 AM 5:50 PM
Waxing Gibbous, 82% visible
Pressure 30.22 in
Visibility 10.0 miles
Clouds Few 6000 ft
Scattered Clouds 10000 ft
Mostly Cloudy 16000 ft
Windchill 16 °F
Dew Point 9 °F
Humidity 73%
Rainfall 0.00 in
Snow Depth Not available.
UV 0 out of 12
Pollen .10 out of 12
Air Quality Not available.
Flu Activity Not available.
METAR KAPA 010353Z 18004KT 10SM FEW060 SCT100 BKN160 M09/M13 A2998 RMK AO2 SLP231 T10941128

More Conditions Fewer Conditions

Pressure 30.22 in
Visibility 10.0 miles
Clouds Few 6000 ft
Scattered Clouds 10000 ft
Mostly Cloudy 16000 ft
Windchill 16 °F
Dew Point 9 °F
Humidity 73%
Rainfall 0.00 in
Snow Depth Not available.
UV 0 out of 12
Pollen .10 out of 12
Air Quality Not available.
Flu Activity Not available.
METAR KAPA 010353Z 18004KT 10SM FEW060 SCT100 BKN160 M09/M13 A2998 RMK AO2 SLP231 T10941128

More Conditions Fewer Conditions

10-Day Weather Forecast

Almanac

Astronomy

Feb. 28, 2015 Rise Set
Actual Time
Civil Twilight
Nautical Twilight
Astronomical Twilight
Moon
Length of Visible Light
Length of Day
Tomorrow will be .
, % of the Moon is Illuminated

Today's Extremes

State Highs State Lows

Community

WunderPhotos

Upload Photos

1,801,314 photos uploaded!

WunderBlogs® & News

Nearby

Air Quality

  Air Quality AQ Index Pollutant
Not available.

Snow Depth

Station Depth Elevation

Earthquake Activity

City Distance Mag. Time & Date
Minimum magnitude displayed is 2.5.

Coastal Water Temperatures

Place Temperature

Nearby Weather Stations